Time;durP1;ratioP1;P1;durP2;ratioP2;P2;SDS_P1;SDS_P2;PMS_P1;PMS_P2;Temp;Humidity;BMP_temperature;BMP_pressure;BME280_temperature;BME280_humidity;BME280_pressure;Samples;Min_cycle;Max_cycle;Signal;HPM_P1;HPM_P2
2022/02/23 00:01:59;;;;;;;9.50;5.83;;;;;;;15.91;33.27;99128.43;1740612;80;21426;-56
2022/02/23 00:04:26;;;;;;;7.40;5.45;;;;;;;16.00;33.26;99142.34;1757976;80;21827;-56
2022/02/23 00:06:53;;;;;;;11.28;6.12;;;;;;;15.85;33.39;99142.98;1762693;80;21518;-57
2022/02/23 00:09:19;;;;;;;8.70;5.65;;;;;;;15.80;33.39;99142.95;1760952;80;21415;-56
2022/02/23 00:11:46;;;;;;;7.50;5.72;;;;;;;15.69;33.49;99149.84;1762504;80;22021;-56
2022/02/23 00:14:13;;;;;;;8.47;5.33;;;;;;;15.58;33.72;99143.98;1760265;80;21574;-56
2022/02/23 00:16:40;;;;;;;8.65;5.53;;;;;;;15.48;33.97;99152.23;1758642;80;21461;-56
2022/02/23 00:19:07;;;;;;;10.03;5.70;;;;;;;15.49;33.71;99141.14;1761347;80;21546;-56
2022/02/23 00:21:34;;;;;;;7.10;4.95;;;;;;;15.45;33.60;99143.16;1755977;80;21613;-56
2022/02/23 00:24:01;;;;;;;9.73;5.23;;;;;;;15.47;33.78;99145.22;1759203;80;21699;-56
2022/02/23 00:26:28;;;;;;;6.80;4.97;;;;;;;15.53;33.76;99138.16;1757664;80;21681;-56
2022/02/23 00:28:55;;;;;;;;;;;;;;;15.62;33.63;99135.34;1754792;80;21452;-56
2022/02/23 00:31:22;;;;;;;7.90;5.37;;;;;;;15.66;33.75;99139.94;1755989;80;20511;-56
2022/02/23 00:33:49;;;;;;;8.30;6.08;;;;;;;15.66;33.34;99146.08;1757858;80;21570;-56
2022/02/23 00:36:15;;;;;;;9.15;6.37;;;;;;;15.54;33.48;99142.52;1760452;80;22025;-57
2022/02/23 00:38:42;;;;;;;11.05;6.25;;;;;;;15.37;34.11;99144.20;1738401;80;21498;-56
2022/02/23 00:41:08;;;;;;;7.75;5.90;;;;;;;15.18;34.17;99142.83;1743820;80;21602;-56
2022/02/23 00:43:35;;;;;;;9.45;5.75;;;;;;;15.28;34.35;99145.68;1751665;80;21487;-55
2022/02/23 00:46:02;;;;;;;6.30;5.17;;;;;;;15.43;34.29;99142.91;1762062;80;21566;-56
2022/02/23 00:48:28;;;;;;;10.63;6.72;;;;;;;15.41;34.35;99139.50;1758605;80;21769;-56
2022/02/23 00:50:55;;;;;;;8.70;5.87;;;;;;;15.32;34.63;99139.20;1757904;80;21478;-56
2022/02/23 00:53:22;;;;;;;10.10;6.65;;;;;;;15.14;34.96;99139.16;1753241;80;20990;-56
2022/02/23 00:55:48;;;;;;;9.57;6.43;;;;;;;15.10;34.91;99143.82;1755259;80;21545;-56
2022/02/23 00:58:15;;;;;;;10.85;5.97;;;;;;;15.21;34.78;99144.89;1765656;80;21564;-56
2022/02/23 01:00:42;;;;;;;10.50;6.03;;;;;;;15.30;34.75;99144.25;1770116;80;21569;-56
2022/02/23 01:03:08;;;;;;;7.53;5.28;;;;;;;15.45;34.51;99149.78;1743566;80;21074;-57
2022/02/23 01:05:35;;;;;;;8.98;6.40;;;;;;;15.47;34.53;99143.90;1704170;83;21482;-56
2022/02/23 01:08:03;;;;;;;9.30;5.85;;;;;;;15.61;34.24;99136.28;1763208;80;21494;-56
2022/02/23 01:10:30;;;;;;;9.98;6.92;;;;;;;15.60;34.09;99137.73;1759476;80;27166;-56
2022/02/23 01:12:57;;;;;;;9.90;7.40;;;;;;;15.59;34.05;99152.77;1751672;80;26996;-56
2022/02/23 01:15:25;;;;;;;10.18;6.45;;;;;;;15.52;34.06;99173.58;1768838;80;21579;-55
2022/02/23 01:17:52;;;;;;;10.65;7.20;;;;;;;15.57;34.22;99174.06;1763829;80;21509;-56
2022/02/23 01:20:19;;;;;;;9.48;7.00;;;;;;;15.76;34.14;99160.41;1762195;80;21521;-57
2022/02/23 01:22:46;;;;;;;9.53;6.80;;;;;;;15.74;34.31;99166.76;1769486;80;21495;-55
2022/02/23 01:25:12;;;;;;;11.48;6.47;;;;;;;15.82;34.21;99167.05;1770324;80;21986;-56
2022/02/23 01:27:39;;;;;;;9.40;5.85;;;;;;;15.95;34.06;99167.01;1771424;80;20939;-56
2022/02/23 01:30:08;;;;;;;12.47;5.60;;;;;;;15.86;34.22;99176.50;1765881;80;21446;-56
2022/02/23 01:32:35;;;;;;;7.20;4.80;;;;;;;15.82;34.71;99171.51;1770710;80;21523;-55
2022/02/23 01:35:01;;;;;;;9.05;4.80;;;;;;;15.98;34.75;99178.73;1770371;80;20971;-55
2022/02/23 01:37:28;;;;;;;6.17;4.28;;;;;;;16.01;34.85;99180.30;1763826;80;22195;-55
2022/02/23 01:39:55;;;;;;;7.40;4.28;;;;;;;16.03;34.61;99183.69;1766446;80;21600;-56
2022/02/23 01:42:21;;;;;;;7.03;4.08;;;;;;;16.18;34.43;99191.88;1700145;83;21071;-56
2022/02/23 01:44:48;;;;;;;7.55;4.53;;;;;;;15.92;34.97;99180.02;1764783;80;21495;-55
2022/02/23 01:47:14;;;;;;;6.70;3.95;;;;;;;16.00;34.95;99185.25;1770802;80;21518;-56
2022/02/23 01:49:41;;;;;;;5.92;4.30;;;;;;;16.14;34.96;99188.59;1766099;80;21846;-56
2022/02/23 01:52:08;;;;;;;9.38;4.50;;;;;;;16.25;34.84;99193.09;1769824;80;21426;-56
2022/02/23 01:54:35;;;;;;;6.90;4.33;;;;;;;16.11;34.91;99195.44;1771487;80;21542;-55
2022/02/23 01:57:01;;;;;;;6.27;3.80;;;;;;;16.20;34.87;99195.72;1763319;80;21493;-56
2022/02/23 01:59:28;;;;;;;5.35;4.12;;;;;;;16.18;34.82;99192.33;1764000;80;21522;-55
2022/02/23 02:01:55;;;;;;;6.10;4.10;;;;;;;16.34;34.42;99196.39;1751326;80;21802;-55
2022/02/23 02:04:22;;;;;;;9.93;4.17;;;;;;;16.15;34.72;99196.06;1747288;80;21388;-56
2022/02/23 02:06:49;;;;;;;6.80;3.65;;;;;;;16.15;34.75;99198.23;1752163;80;21042;-55
2022/02/23 02:09:18;;;;;;;7.03;4.20;;;;;;;16.21;34.72;99198.27;1753494;80;21522;-56
2022/02/23 02:11:44;;;;;;;6.00;4.33;;;;;;;16.20;34.60;99206.33;1762004;80;21495;-57
2022/02/23 02:14:11;;;;;;;5.85;4.05;;;;;;;16.00;34.91;99205.98;1759480;80;21491;-56
2022/02/23 02:16:38;;;;;;;6.77;4.23;;;;;;;16.15;34.50;99210.66;1758617;80;21402;-56
2022/02/23 02:19:06;;;;;;;6.75;4.00;;;;;;;16.12;34.40;99213.06;1749574;80;21439;-56
2022/02/23 02:22:05;;;;;;;9.25;4.40;;;;;;;16.11;34.45;99219.30;1749630;80;21543;-56
2022/02/23 02:24:38;;;;;;;5.78;4.30;;;;;;;16.22;34.36;99223.84;1756404;80;20974;-56
2022/02/23 02:27:07;;;;;;;6.58;4.50;;;;;;;16.30;34.10;99220.14;1757919;80;21538;-56
2022/02/23 02:29:34;;;;;;;5.72;4.58;;;;;;;16.20;34.10;99225.77;1743084;80;21541;-56
2022/02/23 02:32:02;;;;;;;8.85;4.87;;;;;;;16.15;33.91;99227.41;1751630;80;21526;-56
2022/02/23 02:34:29;;;;;;;7.17;4.95;;;;;;;16.05;33.93;99224.19;1761374;80;21551;-56
2022/02/23 02:36:56;;;;;;;6.80;4.58;;;;;;;16.02;33.88;99241.18;1756049;80;21483;-56
2022/02/23 02:39:24;;;;;;;8.38;4.80;;;;;;;15.96;33.90;99241.14;1754720;80;22110;-55
2022/02/23 02:41:51;;;;;;;4.83;4.37;;;;;;;15.95;34.00;99251.84;1751294;80;23977;-56
2022/02/23 02:44:18;;;;;;;6.25;4.40;;;;;;;15.96;34.01;99248.26;1755109;80;27012;-56
2022/02/23 02:46:45;;;;;;;7.25;4.08;;;;;;;15.86;34.08;99256.48;1757370;80;20990;-56
2022/02/23 02:49:12;;;;;;;6.97;4.33;;;;;;;15.74;34.34;99260.36;1753166;80;27231;-56
2022/02/23 02:51:39;;;;;;;5.62;3.90;;;;;;;15.80;34.34;99262.22;1749216;80;21716;-56
2022/02/23 02:54:06;;;;;;;6.03;3.92;;;;;;;15.88;34.28;99262.52;1761849;80;21379;-56
2022/02/23 02:56:34;;;;;;;4.75;3.85;;;;;;;16.00;34.49;99260.33;1758692;80;21503;-56
2022/02/23 02:59:02;;;;;;;5.05;3.62;;;;;;;16.06;34.69;99269.16;1750500;80;21499;-55
2022/02/23 03:01:29;;;;;;;5.80;3.55;;;;;;;16.12;34.86;99276.70;1755376;80;21530;-56
2022/02/23 03:03:56;;;;;;;4.80;3.98;;;;;;;16.25;34.83;99279.30;1751564;80;21731;-55
2022/02/23 03:06:23;;;;;;;4.90;3.83;;;;;;;16.20;34.83;99281.45;1749789;80;21579;-56
2022/02/23 03:08:52;;;;;;;5.10;3.70;;;;;;;16.23;34.84;99283.87;1761812;80;21585;-56
2022/02/23 03:11:19;;;;;;;5.65;3.30;;;;;;;16.34;34.50;99279.96;1760468;80;21534;-55
2022/02/23 03:13:45;;;;;;;5.92;3.60;;;;;;;16.30;34.58;99283.80;1758926;80;21423;-55
2022/02/23 03:16:13;;;;;;;5.45;2.98;;;;;;;16.27;34.76;99289.80;1758798;80;22035;-55
2022/02/23 03:18:41;;;;;;;4.92;2.83;;;;;;;16.23;34.41;99283.87;1753933;80;21073;-54
2022/02/23 03:21:08;;;;;;;5.28;3.55;;;;;;;16.22;34.16;99280.86;1760726;80;21498;-55
2022/02/23 03:23:35;;;;;;;4.47;2.65;;;;;;;16.28;33.96;99278.25;1744804;80;20982;-55
2022/02/23 03:26:02;;;;;;;6.70;2.65;;;;;;;16.30;33.68;99279.83;1762824;80;21570;-55
2022/02/23 03:28:31;;;;;;;3.33;2.60;;;;;;;16.21;33.66;99284.95;1749980;80;21515;-56
2022/02/23 03:30:58;;;;;;;3.85;2.40;;;;;;;16.00;33.54;99288.66;1752442;80;21507;-56
2022/02/23 03:33:25;;;;;;;3.83;2.17;;;;;;;15.92;33.38;99292.70;1756033;80;21543;-55
2022/02/23 03:35:52;;;;;;;3.47;2.40;;;;;;;16.00;33.39;99289.50;1753109;80;21574;-55
2022/02/23 03:38:18;;;;;;;4.53;2.33;;;;;;;15.89;33.33;99286.27;1744807;80;21407;-55
2022/02/23 03:40:45;;;;;;;4.92;2.55;;;;;;;15.84;33.23;99295.05;1751240;80;21940;-55
2022/02/23 03:43:16;;;;;;;5.17;2.65;;;;;;;15.72;33.28;99294.53;1757755;80;21503;-55
2022/02/23 03:45:40;;;;;;;4.37;2.80;;;;;;;15.72;33.08;99298.02;1753421;80;21069;-55
2022/02/23 03:48:07;;;;;;;3.97;2.60;;;;;;;15.61;33.12;99309.84;1752898;80;21444;-55
2022/02/23 03:50:34;;;;;;;3.40;2.12;;;;;;;15.57;33.12;99306.55;1746442;80;21094;-55
2022/02/23 03:53:00;;;;;;;2.92;2.30;;;;;;;15.59;33.06;99303.80;1755051;80;21724;-55
2022/02/23 03:55:27;;;;;;;3.87;2.60;;;;;;;15.43;33.28;99302.70;1732222;80;21515;-56
2022/02/23 03:57:54;;;;;;;3.50;2.27;;;;;;;15.45;33.28;99307.41;1744667;80;21589;-55
2022/02/23 04:00:21;;;;;;;4.65;2.15;;;;;;;15.28;33.57;99313.02;1768057;80;21506;-55
2022/02/23 04:02:47;;;;;;;4.12;1.87;;;;;;;15.26;33.49;99320.22;1776584;80;21562;-55
2022/02/23 04:05:14;;;;;;;3.20;2.55;;;;;;;15.30;33.40;99315.08;1765840;80;21530;-54
2022/02/23 04:07:41;;;;;;;3.02;2.00;;;;;;;15.30;33.32;99319.05;1776302;80;21541;-55
2022/02/23 04:10:08;;;;;;;4.10;2.35;;;;;;;15.25;33.42;99321.16;1775825;80;21383;-56
2022/02/23 04:12:35;;;;;;;2.58;2.25;;;;;;;15.13;33.51;99324.16;1764455;80;21545;-55
2022/02/23 04:15:03;;;;;;;2.62;2.40;;;;;;;14.99;33.72;99325.92;1775368;80;21440;-56
2022/02/23 04:17:30;;;;;;;3.55;2.25;;;;;;;14.98;33.71;99329.51;1760399;80;21807;-56
2022/02/23 04:19:57;;;;;;;5.00;2.98;;;;;;;15.02;33.65;99333.29;1769386;80;21542;-56
2022/02/23 04:22:24;;;;;;;2.37;1.80;;;;;;;14.97;33.62;99333.13;1764835;80;21047;-54
2022/02/23 04:24:51;;;;;;;3.70;2.15;;;;;;;14.77;33.73;99335.73;1762809;80;21552;-56
2022/02/23 04:27:18;;;;;;;3.67;2.50;;;;;;;14.72;33.75;99334.34;1769700;80;21605;-54
2022/02/23 04:29:46;;;;;;;5.67;2.37;;;;;;;14.71;33.65;99337.47;1773838;80;22011;-53
2022/02/23 04:32:13;;;;;;;5.03;1.98;;;;;;;14.56;33.56;99339.27;1775812;80;20998;-55
2022/02/23 04:34:39;;;;;;;3.15;1.80;;;;;;;14.53;33.71;99336.81;1765858;80;21498;-55
2022/02/23 04:37:07;;;;;;;3.72;2.08;;;;;;;14.56;33.45;99336.63;1759191;80;21577;-55
2022/02/23 04:39:35;;;;;;;2.90;1.42;;;;;;;14.54;33.29;99335.88;1765101;80;21455;-55
2022/02/23 04:42:02;;;;;;;2.47;1.75;;;;;;;14.48;33.06;99340.70;1771106;80;22000;-55
2022/02/23 04:44:29;;;;;;;2.92;1.80;;;;;;;14.41;32.86;99349.52;1775073;80;21041;-55
2022/02/23 04:46:55;;;;;;;2.10;1.57;;;;;;;14.38;32.92;99345.73;1776043;80;20931;-54
2022/02/23 04:49:22;;;;;;;2.40;1.70;;;;;;;14.34;32.87;99352.16;1775909;80;21482;-55
2022/02/23 04:51:49;;;;;;;3.45;1.60;;;;;;;14.07;32.84;99359.55;1776475;80;21544;-55
2022/02/23 04:54:15;;;;;;;3.33;2.02;;;;;;;14.14;32.78;99366.13;1771310;80;21737;-56
2022/02/23 04:56:42;;;;;;;2.98;1.77;;;;;;;14.05;32.72;99365.86;1762694;80;21526;-55
2022/02/23 04:59:08;;;;;;;2.35;1.85;;;;;;;14.07;32.75;99371.90;1768654;80;21407;-55
2022/02/23 05:01:35;;;;;;;2.58;2.10;;;;;;;14.02;32.69;99378.33;1766036;80;21443;-56
2022/02/23 05:04:02;;;;;;;4.75;2.05;;;;;;;14.05;32.43;99383.04;1770504;80;21530;-55
2022/02/23 05:06:29;;;;;;;3.10;2.00;;;;;;;13.93;32.37;99381.52;1749729;80;21825;-55
2022/02/23 05:08:55;;;;;;;2.52;1.62;;;;;;;13.96;32.26;99381.34;1759580;80;20958;-55
2022/02/23 05:13:15;;;;;;;1.82;1.67;;;;;;;11.46;36.87;99402.15;1829141;76;23045;-56
2022/02/23 05:15:41;;;;;;;1.85;1.40;;;;;;;13.50;32.87;99394.66;1791775;78;21502;-55
2022/02/23 05:18:09;;;;;;;1.98;1.60;;;;;;;13.56;32.16;99398.28;1805031;78;21796;-55
2022/02/23 05:20:36;;;;;;;2.05;1.75;;;;;;;13.74;32.15;99402.08;1799417;78;21440;-55
2022/02/23 05:23:05;;;;;;;1.40;1.22;;;;;;;13.68;32.18;99409.91;1802159;78;21572;-54
2022/02/23 05:25:33;;;;;;;2.67;1.40;;;;;;;13.66;31.89;99403.86;1791917;78;21611;-55
2022/02/23 05:28:00;;;;;;;3.08;1.60;;;;;;;13.58;32.25;99410.05;1806400;78;21548;-55
2022/02/23 05:30:26;;;;;;;2.25;1.37;;;;;;;13.70;31.96;99414.63;1793703;78;22094;-54
2022/02/23 05:32:53;;;;;;;1.32;1.10;;;;;;;13.60;31.93;99411.68;1802366;78;21493;-55
2022/02/23 05:35:20;;;;;;;1.50;1.37;;;;;;;13.67;31.76;99420.08;1798404;78;21026;-55
2022/02/23 05:37:46;;;;;;;3.85;1.60;;;;;;;13.90;31.62;99421.37;1806950;78;21863;-55
2022/02/23 05:40:13;;;;;;;2.33;1.70;;;;;;;13.94;31.52;99423.36;1802341;78;21414;-56
2022/02/23 05:42:40;;;;;;;2.02;1.60;;;;;;;13.72;31.17;99425.11;1793879;78;21778;-56
2022/02/23 05:45:07;;;;;;;1.77;1.17;;;;;;;13.83;30.90;99431.45;1807585;78;21723;-56
2022/02/23 05:47:34;;;;;;;2.20;1.62;;;;;;;13.92;31.28;99426.09;1796425;78;21603;-56
2022/02/23 05:50:01;;;;;;;2.55;1.40;;;;;;;13.87;31.21;99434.76;1799944;78;21023;-56
2022/02/23 05:52:27;;;;;;;5.20;1.70;;;;;;;13.89;31.27;99432.88;1796891;78;21477;-57
2022/02/23 05:54:54;;;;;;;2.00;1.62;;;;;;;13.94;31.01;99444.51;1798773;78;21803;-56
2022/02/23 05:57:21;;;;;;;1.65;1.47;;;;;;;13.97;31.08;99436.37;1790571;78;21029;-56
2022/02/23 05:59:48;;;;;;;1.30;1.20;;;;;;;14.10;31.02;99439.13;1803993;78;21069;-56
2022/02/23 06:02:15;;;;;;;1.70;1.40;;;;;;;14.14;30.90;99441.48;1804117;78;21490;-58
2022/02/23 06:04:42;;;;;;;1.40;1.27;;;;;;;14.23;30.81;99445.85;1792594;78;21611;-55
2022/02/23 06:07:09;;;;;;;1.60;1.30;;;;;;;14.27;30.79;99442.91;1754277;80;21746;-56
2022/02/23 06:09:36;;;;;;;4.67;1.42;;;;;;;14.25;30.41;99450.09;1755965;80;21553;-58
2022/02/23 06:12:04;;;;;;;2.02;1.25;;;;;;;14.38;30.74;99451.04;1732898;81;21508;-56
2022/02/23 06:14:31;;;;;;;;;;;;;;;14.38;30.41;99452.36;1784629;78;21537;-55
2022/02/23 06:16:58;;;;;;;2.60;1.30;;;;;;;14.39;30.48;99463.33;1796389;78;20431;-55
2022/02/23 06:19:25;;;;;;;1.65;1.55;;;;;;;14.41;30.35;99454.83;1783968;78;22114;-55
2022/02/23 06:21:52;;;;;;;2.15;1.20;;;;;;;14.32;30.39;99462.00;1765921;78;21573;-55
2022/02/23 06:24:18;;;;;;;2.33;1.40;;;;;;;14.41;30.25;99469.38;1787246;78;20938;-56
2022/02/23 06:26:45;;;;;;;2.92;1.10;;;;;;;14.62;30.32;99467.70;1779495;79;21436;-55
2022/02/23 06:29:12;;;;;;;1.72;1.35;;;;;;;14.82;30.07;99469.56;1773506;79;21538;-55
2022/02/23 06:31:38;;;;;;;3.90;1.90;;;;;;;14.84;30.07;99472.48;1775108;79;21875;-55
2022/02/23 06:34:05;;;;;;;1.67;1.50;;;;;;;14.76;29.92;99476.09;1785947;79;21417;-55
2022/02/23 06:36:32;;;;;;;2.77;1.70;;;;;;;14.92;29.83;99472.86;1777209;78;21498;-55
2022/02/23 06:38:58;;;;;;;2.35;1.65;;;;;;;15.02;29.67;99477.58;1772725;79;20955;-56
2022/02/23 06:41:26;;;;;;;2.80;1.67;;;;;;;14.99;29.64;99477.28;1791406;78;21522;-56
2022/02/23 06:43:53;;;;;;;1.70;1.37;;;;;;;15.14;29.58;99479.42;1785872;79;22118;-55
2022/02/23 06:46:20;;;;;;;1.92;1.70;;;;;;;15.18;29.41;99481.79;1785297;78;22115;-56
2022/02/23 06:48:48;;;;;;;2.00;1.50;;;;;;;15.38;29.30;99478.31;1784797;78;21518;-55
2022/02/23 06:51:18;;;;;;;;;;;;;;;15.48;29.12;99485.17;1780835;78;21470;-56
2022/02/23 06:53:42;;;;;;;4.22;1.47;;;;;;;15.60;28.99;99486.19;1780537;79;20143;-54
2022/02/23 06:56:10;;;;;;;3.65;1.67;;;;;;;15.62;28.82;99490.91;1776530;79;21872;-56
2022/02/23 06:58:49;;;;;;;3.52;1.87;;;;;;;15.54;28.59;99494.08;1790403;78;21453;-56
2022/02/23 07:01:18;;;;;;;2.60;1.77;;;;;;;15.56;28.47;99494.82;1775784;79;21432;-56
2022/02/23 07:03:46;;;;;;;2.92;2.02;;;;;;;15.72;28.28;99499.94;1774012;79;21553;-56
2022/02/23 07:06:14;;;;;;;6.42;2.92;;;;;;;15.92;28.34;99494.67;1783754;79;21533;-56
2022/02/23 07:08:47;;;;;;;4.45;2.85;;;;;;;15.98;27.87;99503.53;1777700;79;22074;-56
2022/02/23 07:11:14;;;;;;;3.60;2.17;;;;;;;15.92;28.09;99505.28;1775951;79;21609;-53
2022/02/23 07:13:43;;;;;;;4.42;1.75;;;;;;;16.08;27.81;99505.08;1802788;78;21490;-54
2022/02/23 07:16:12;;;;;;;1.92;1.60;;;;;;;16.15;27.69;99503.72;1780385;78;21581;-55
2022/02/23 07:18:40;;;;;;;2.67;2.05;;;;;;;16.43;27.59;99507.98;1798959;78;21466;-54
2022/02/23 07:21:06;;;;;;;;;;;;;;;16.88;27.68;99502.24;1799754;78;21734;-55
2022/02/23 07:23:33;;;;;;;2.20;1.40;;;;;;;17.32;27.66;99500.83;1801256;78;20516;-55
2022/02/23 07:25:59;;;;;;;1.72;1.50;;;;;;;17.62;27.15;99507.52;1793704;78;21900;-55
2022/02/23 07:28:27;;;;;;;2.08;1.60;;;;;;;17.95;26.70;99504.17;1806449;78;21064;-54
2022/02/23 07:30:54;;;;;;;1.82;1.42;;;;;;;17.96;26.22;99511.66;1795480;78;21529;-55
2022/02/23 07:33:22;;;;;;;2.62;1.92;;;;;;;18.24;26.69;99507.75;1800274;78;21860;-55
2022/02/23 07:35:48;;;;;;;1.70;1.60;;;;;;;18.43;26.55;99507.17;1737834;81;21558;-55
2022/02/23 07:38:15;;;;;;;3.10;1.95;;;;;;;18.36;26.41;99509.45;1739335;80;21132;-55
2022/02/23 07:40:42;;;;;;;2.37;2.05;;;;;;;17.95;25.55;99513.48;1803605;78;21529;-55
2022/02/23 07:43:09;;;;;;;2.42;2.05;;;;;;;18.30;25.32;99516.58;1797455;78;21475;-56
2022/02/23 07:45:36;;;;;;;2.15;1.75;;;;;;;18.65;25.38;99516.52;1802137;78;21686;-55
2022/02/23 07:48:04;;;;;;;1.85;1.67;;;;;;;18.82;24.67;99518.38;1803157;78;21540;-55
2022/02/23 07:50:31;;;;;;;;;;;;;;;18.82;23.27;99515.70;1808236;77;21515;-55
2022/02/23 07:52:58;;;;;;;2.80;1.92;;;;;;;19.18;23.58;99521.73;1800818;78;20193;-55
2022/02/23 07:55:25;;;;;;;2.33;1.82;;;;;;;19.22;23.96;99518.68;1800204;77;21024;-55
2022/02/23 07:57:53;;;;;;;2.65;1.90;;;;;;;19.22;24.07;99519.17;1804366;78;21836;-54
2022/02/23 08:00:22;;;;;;;2.27;2.05;;;;;;;19.37;23.64;99525.92;1791116;78;21529;-54
2022/02/23 08:02:48;;;;;;;2.30;2.05;;;;;;;19.94;23.26;99525.27;1802365;78;21692;-55
2022/02/23 08:05:15;;;;;;;2.17;1.98;;;;;;;20.79;23.18;99532.30;1797583;77;20974;-55
2022/02/23 08:07:43;;;;;;;2.62;1.62;;;;;;;21.39;22.95;99540.35;1796689;78;27255;-55
2022/02/23 08:10:09;;;;;;;2.47;2.22;;;;;;;21.56;22.02;99533.52;1789608;78;22090;-55
2022/02/23 08:12:37;;;;;;;1.67;1.57;;;;;;;21.37;22.13;99528.95;1787511;78;21416;-55
2022/02/23 08:20:41;;;;;;;3.15;2.40;;;;;;;21.29;22.38;99525.30;1742161;80;21490;-56
2022/02/23 08:23:11;;;;;;;2.12;1.90;;;;;;;21.40;22.16;99523.84;1731293;82;21734;-56
2022/02/23 08:25:37;;;;;;;3.17;1.55;;;;;;;21.67;22.18;99517.00;1726641;82;21100;-55
2022/02/23 08:28:04;;;;;;;2.67;2.47;;;;;;;21.64;21.13;99528.80;1724585;81;21507;-57
2022/02/23 08:30:31;;;;;;;4.25;2.20;;;;;;;21.49;21.95;99526.19;1729330;82;21617;-56
2022/02/23 08:33:02;;;;;;;3.37;2.08;;;;;;;21.39;22.27;99513.61;1744454;81;21427;-57
2022/02/23 08:35:26;;;;;;;3.40;2.47;;;;;;;21.50;22.33;99512.69;1730034;82;22251;-56
2022/02/23 08:37:53;;;;;;;3.50;2.50;;;;;;;21.61;22.43;99509.55;1729184;82;21589;-56
2022/02/23 08:40:20;;;;;;;2.60;2.37;;;;;;;21.35;22.17;99506.02;1748348;80;21513;-56
2022/02/23 08:42:47;;;;;;;2.73;2.23;;;;;;;21.43;22.25;99511.51;1729910;81;21506;-56
2022/02/23 08:45:14;;;;;;;2.22;2.02;;;;;;;21.43;22.12;99498.64;1732998;80;21535;-56
2022/02/23 08:47:41;;;;;;;4.30;2.52;;;;;;;21.45;22.28;99506.06;1741343;79;22096;-56
2022/02/23 08:50:08;;;;;;;2.42;2.20;;;;;;;21.36;22.42;99513.91;1722500;82;21010;-55
2022/02/23 08:52:36;;;;;;;3.08;2.20;;;;;;;21.05;22.12;99511.78;1727451;82;21466;-53
2022/02/23 08:55:04;;;;;;;2.87;2.15;;;;;;;20.95;22.12;99508.24;1732449;82;21479;-57
2022/02/23 08:57:31;;;;;;;4.05;2.02;;;;;;;20.80;21.79;99510.44;1733652;80;21514;-56
2022/02/23 08:59:58;;;;;;;3.63;2.67;;;;;;;20.87;22.25;99514.27;1741205;80;22083;-55
2022/02/23 09:02:24;;;;;;;3.33;2.40;;;;;;;20.88;22.17;99518.61;1734956;81;21661;-55
2022/02/23 09:04:52;;;;;;;2.52;2.27;;;;;;;20.94;22.09;99510.55;1727412;82;21617;-55
2022/02/23 09:07:19;;;;;;;2.70;2.50;;;;;;;20.69;21.95;99522.55;1731865;82;21558;-56
2022/02/23 09:09:46;;;;;;;2.40;2.20;;;;;;;20.61;22.31;99523.22;1728039;82;21424;-56
2022/02/23 09:12:13;;;;;;;2.75;2.12;;;;;;;20.57;22.34;99519.09;1720668;82;22119;-54
2022/02/23 09:14:42;;;;;;;2.83;1.85;;;;;;;20.16;21.70;99535.48;1721860;82;21395;-55
2022/02/23 09:17:08;;;;;;;3.00;1.98;;;;;;;19.85;21.98;99524.70;1758912;78;21022;-56
2022/02/23 09:19:35;;;;;;;2.83;1.95;;;;;;;19.63;21.88;99522.95;1764609;79;21498;-57
2022/02/23 09:22:03;;;;;;;3.80;2.25;;;;;;;19.41;21.93;99526.52;1762575;79;21545;-55
2022/02/23 09:24:30;;;;;;;2.47;1.85;;;;;;;19.69;21.63;99526.44;1770982;78;21674;-56
2022/02/23 09:26:57;;;;;;;3.15;2.00;;;;;;;19.63;21.59;99525.12;1772209;79;21021;-55
2022/02/23 09:29:25;;;;;;;4.75;2.75;;;;;;;19.60;21.53;99527.20;1766957;79;21711;-55
2022/02/23 09:31:52;;;;;;;2.47;2.27;;;;;;;19.44;21.76;99531.62;1768393;79;21601;-55
2022/02/23 09:34:20;;;;;;;2.80;2.00;;;;;;;19.62;21.46;99518.58;1755261;79;20926;-56
2022/02/23 09:36:47;;;;;;;2.62;2.27;;;;;;;19.88;21.16;99527.62;1769923;79;21546;-55
2022/02/23 09:39:14;;;;;;;3.25;2.58;;;;;;;19.97;20.96;99518.34;1764811;79;21478;-54
2022/02/23 09:41:41;;;;;;;3.63;2.40;;;;;;;20.06;21.23;99523.41;1757733;79;21538;-55
2022/02/23 09:44:08;;;;;;;3.55;2.10;;;;;;;19.92;21.34;99520.55;1757351;79;21398;-56
2022/02/23 09:46:35;;;;;;;3.02;2.10;;;;;;;19.44;21.65;99521.80;1764252;78;21544;-56
2022/02/23 09:49:03;;;;;;;2.98;2.30;;;;;;;19.47;21.51;99518.02;1763074;79;21705;-54
2022/02/23 09:51:30;;;;;;;;;;;;;;;19.57;21.86;99524.77;1759716;79;21558;-54
2022/02/23 09:53:56;;;;;;;3.37;2.70;;;;;;;19.86;21.35;99525.07;1765756;79;20455;-55
2022/02/23 09:56:23;;;;;;;2.35;2.15;;;;;;;19.57;22.09;99523.44;1765036;79;21546;-55
2022/02/23 09:58:52;;;;;;;2.77;2.52;;;;;;;19.11;22.69;99528.02;1768414;79;21088;-56
2022/02/23 10:01:21;;;;;;;1.90;1.65;;;;;;;18.92;22.96;99523.81;1772776;78;21490;-55
2022/02/23 10:03:51;;;;;;;3.40;2.40;;;;;;;19.30;22.90;99520.72;1748619;80;21589;-55
2022/02/23 10:06:21;;;;;;;3.85;2.30;;;;;;;19.32;22.87;99522.77;1759063;79;20938;-55
2022/02/23 10:08:48;;;;;;;2.83;2.37;;;;;;;19.62;22.57;99522.58;1742718;80;21518;-56
2022/02/23 10:11:19;;;;;;;3.47;2.75;;;;;;;20.20;21.97;99522.23;1732075;79;20938;-55
2022/02/23 10:13:50;;;;;;;2.47;2.12;;;;;;;19.80;22.08;99525.59;1772521;79;21773;-55
2022/02/23 10:16:18;;;;;;;2.98;2.30;;;;;;;19.97;21.88;99522.84;1788487;78;21395;-56
2022/02/23 10:18:45;;;;;;;3.47;2.75;;;;;;;19.72;22.27;99526.66;1783031;78;21427;-56
2022/02/23 10:21:13;;;;;;;3.80;3.10;;;;;;;20.13;22.07;99521.89;1764722;79;21422;-56
2022/02/23 10:23:40;;;;;;;2.72;2.52;;;;;;;20.39;21.76;99521.50;1766480;78;21006;-56
2022/02/23 10:26:12;;;;;;;2.85;2.60;;;;;;;20.68;21.36;99512.83;1790623;78;21488;-56
2022/02/23 10:28:37;;;;;;;4.45;2.58;;;;;;;20.68;21.46;99520.84;1790495;78;21128;-55
2022/02/23 10:31:09;;;;;;;3.70;2.35;;;;;;;20.45;21.56;99518.80;1780954;78;21509;-57
2022/02/23 10:33:43;;;;;;;2.47;2.20;;;;;;;20.23;21.55;99512.64;1784912;77;21492;-56
2022/02/23 10:36:18;;;;;;;4.17;2.52;;;;;;;20.25;21.42;99516.02;1790910;78;21427;-56
2022/02/23 10:38:50;;;;;;;4.70;2.60;;;;;;;19.92;21.88;99516.55;1786925;78;21682;-56
2022/02/23 10:41:28;;;;;;;2.80;1.90;;;;;;;19.74;21.92;99519.41;1784983;78;21624;-55
2022/02/23 10:43:55;;;;;;;2.35;1.90;;;;;;;19.58;21.95;99513.14;1784038;79;21474;-55
2022/02/23 10:46:23;;;;;;;4.17;2.47;;;;;;;19.91;21.83;99509.53;1781815;79;21511;-56
2022/02/23 10:49:02;;;;;;;2.85;2.02;;;;;;;20.34;21.78;99515.70;1776457;78;20966;-55
2022/02/23 10:51:32;;;;;;;2.30;2.10;;;;;;;19.87;21.25;99512.56;1785057;79;21826;-55
2022/02/23 10:54:11;;;;;;;4.37;2.92;;;;;;;19.72;21.95;99515.98;1719728;82;21579;-56
2022/02/23 10:56:41;;;;;;;3.87;2.65;;;;;;;20.03;21.81;99519.16;1787449;79;21576;-55
2022/02/23 10:59:17;;;;;;;2.62;2.42;;;;;;;20.00;21.79;99506.09;1778952;78;21557;-56
2022/02/23 11:01:47;;;;;;;4.67;2.40;;;;;;;20.22;21.81;99514.44;1770892;79;20915;-55
2022/02/23 11:04:14;;;;;;;2.10;1.90;;;;;;;20.59;21.59;99509.12;1785614;79;21799;-55
2022/02/23 11:06:42;;;;;;;1.73;1.63;;;;;;;20.20;21.10;99515.56;1794112;79;21541;-56
2022/02/23 11:09:11;;;;;;;2.20;1.98;;;;;;;20.32;20.37;99515.83;1779097;79;21407;-55
2022/02/23 11:11:38;;;;;;;3.27;1.95;;;;;;;20.45;20.87;99511.63;1782182;79;21612;-55
2022/02/23 11:14:08;;;;;;;2.90;1.87;;;;;;;20.40;20.63;99512.03;1778219;79;21245;-56
2022/02/23 11:16:35;;;;;;;2.98;1.82;;;;;;;20.27;20.48;99518.53;1790346;78;21838;-54
2022/02/23 11:19:05;;;;;;;2.60;1.75;;;;;;;20.53;20.26;99515.84;1753718;79;28761;-55
2022/02/23 11:21:36;;;;;;;3.22;2.25;;;;;;;20.55;20.31;99515.21;1782515;79;21510;-54
2022/02/23 11:24:09;;;;;;;2.62;2.17;;;;;;;20.46;20.20;99516.00;1775535;79;20970;-55
2022/02/23 11:26:38;;;;;;;2.25;1.70;;;;;;;20.61;20.00;99504.02;1782362;79;21467;-55
2022/02/23 11:29:22;;;;;;;1.87;1.75;;;;;;;20.76;19.88;99507.68;1748245;79;21653;-55
2022/02/23 11:31:52;;;;;;;2.40;2.00;;;;;;;21.19;20.08;99509.20;1790036;78;21593;-54
2022/02/23 11:34:21;;;;;;;3.35;1.80;;;;;;;21.42;19.51;99510.30;1686911;82;21459;-56
2022/02/23 11:36:49;;;;;;;4.62;1.67;;;;;;;21.36;19.77;99498.33;1795060;78;21771;-55
2022/02/23 11:39:33;;;;;;;2.37;1.80;;;;;;;21.22;19.54;99503.59;1790106;78;21526;-57
2022/02/23 11:42:03;;;;;;;1.77;1.60;;;;;;;21.30;19.63;99509.59;1792502;78;22114;-54
2022/02/23 11:44:37;;;;;;;2.27;1.50;;;;;;;21.18;19.38;99500.84;1719294;82;21053;-56